Time;durP1;ratioP1;P1;durP2;ratioP2;P2;SDS_P1;SDS_P2;PMS_P1;PMS_P2;Temp;Humidity;BMP_temperature;BMP_pressure;BME280_temperature;BME280_humidity;BME280_pressure;Samples;Min_cycle;Max_cycle;Signal;HPM_P1;HPM_P2
2022/12/10 00:01:15;;;;;;;47.00;29.93;;;;;;;7.03;100.00;98868.05;1384618;89;21340;-77
2022/12/10 00:03:42;;;;;;;41.42;29.67;;;;;;;7.09;100.00;98866.58;1387523;89;21570;-77
2022/12/10 00:06:12;;;;;;;46.47;30.20;;;;;;;7.09;100.00;98866.58;1384453;89;22221;-76
2022/12/10 00:08:39;;;;;;;54.10;30.72;;;;;;;7.11;100.00;98870.70;1550998;89;21303;-77
2022/12/10 00:11:08;;;;;;;41.73;24.80;;;;;;;7.14;100.00;98874.31;1385286;89;21349;-76
2022/12/10 00:13:35;;;;;;;41.37;25.97;;;;;;;7.17;100.00;98870.04;1382568;89;21378;-78
2022/12/10 00:16:04;;;;;;;39.40;24.53;;;;;;;7.24;100.00;98875.46;1384123;89;21326;-78
2022/12/10 00:18:30;;;;;;;41.63;27.43;;;;;;;7.29;100.00;98867.09;1388786;89;22446;-78
2022/12/10 00:20:56;;;;;;;42.73;26.40;;;;;;;7.34;100.00;98856.89;1385764;89;21364;-79
2022/12/10 00:23:23;;;;;;;46.60;23.57;;;;;;;7.37;100.00;98865.77;1392005;89;22259;-80
2022/12/10 00:25:49;;;;;;;39.93;20.47;;;;;;;7.42;100.00;98862.12;1385206;89;21363;-79
2022/12/10 00:28:15;;;;;;;37.33;15.80;;;;;;;7.48;100.00;98868.08;1391846;89;21362;-79
2022/12/10 00:30:41;;;;;;;34.30;11.87;;;;;;;7.55;100.00;98859.01;1385532;89;22189;-79
2022/12/10 00:33:07;;;;;;;29.63;11.20;;;;;;;7.65;100.00;98858.32;1392055;89;21355;-80
2022/12/10 00:35:36;;;;;;;31.40;11.00;;;;;;;7.76;100.00;98857.16;1391955;89;21407;-79
2022/12/10 00:38:03;;;;;;;24.73;8.27;;;;;;;7.87;100.00;98846.27;1551079;89;21318;-78
2022/12/10 00:40:29;;;;;;;17.40;7.30;;;;;;;7.98;100.00;98839.33;1384991;89;21318;-79
2022/12/10 00:42:55;;;;;;;28.90;10.07;;;;;;;8.06;100.00;98843.26;1385447;89;22222;-81
2022/12/10 00:45:21;;;;;;;27.57;9.30;;;;;;;8.16;100.00;98839.59;1392054;89;21341;-80
2022/12/10 00:47:47;;;;;;;22.37;7.23;;;;;;;8.23;100.00;98841.86;1385809;89;21385;-80
2022/12/10 00:50:13;;;;;;;20.10;7.57;;;;;;;8.30;100.00;98833.10;1391555;89;21400;-81
2022/12/10 00:52:39;;;;;;;27.00;8.37;;;;;;;8.36;100.00;98824.50;1385839;89;21356;-80
2022/12/10 00:55:06;;;;;;;26.80;6.03;;;;;;;8.44;100.00;98824.19;1392515;89;21386;-81
2022/12/10 00:57:32;;;;;;;24.93;7.33;;;;;;;8.51;100.00;98826.44;1391636;89;21503;-82
2022/12/10 00:59:58;;;;;;;42.63;10.77;;;;;;;8.56;100.00;98830.20;1385608;89;21466;-80
2022/12/10 01:02:24;;;;;;;38.80;10.00;;;;;;;8.61;100.00;98815.69;1385734;89;22177;-80
2022/12/10 01:04:54;;;;;;;29.10;8.13;;;;;;;8.66;100.00;98814.64;1385743;89;21567;-80
2022/12/10 01:07:20;;;;;;;17.80;6.47;;;;;;;8.69;100.00;98807.70;1391657;89;22362;-79
2022/12/10 01:09:45;;;;;;;31.87;7.17;;;;;;;8.70;100.00;98809.36;1385635;89;21356;-79
2022/12/10 01:12:11;;;;;;;30.93;9.43;;;;;;;8.75;100.00;98801.75;1388385;89;21347;-79
2022/12/10 01:14:37;;;;;;;21.27;7.43;;;;;;;8.77;100.00;98807.65;1370385;90;21333;-79
2022/12/10 01:17:05;;;;;;;30.40;10.20;;;;;;;8.81;100.00;98803.69;1392755;89;22189;-80
2022/12/10 01:19:33;;;;;;;16.30;6.20;;;;;;;8.80;100.00;98806.83;1384091;89;21356;-80
2022/12/10 01:21:59;;;;;;;24.07;6.97;;;;;;;8.84;100.00;98803.33;1389571;89;21523;-80
2022/12/10 01:24:28;;;;;;;19.67;6.13;;;;;;;8.86;100.00;98807.94;1372657;90;21482;-80
2022/12/10 01:26:57;;;;;;;22.27;8.60;;;;;;;8.88;100.00;98809.88;1389254;89;21363;-80
2022/12/10 01:29:23;;;;;;;24.50;6.70;;;;;;;8.90;100.00;98810.53;1388490;89;22317;-80
2022/12/10 01:31:54;;;;;;;25.77;7.47;;;;;;;8.93;100.00;98804.91;1391628;89;21311;-80
2022/12/10 01:34:21;;;;;;;17.90;7.07;;;;;;;8.95;100.00;98808.70;1382948;89;21431;-80
2022/12/10 01:36:51;;;;;;;33.60;8.60;;;;;;;8.98;100.00;98799.92;1385064;89;21363;-79
2022/12/10 01:39:20;;;;;;;25.08;8.38;;;;;;;9.00;100.00;98799.22;1551240;89;21333;-77
2022/12/10 01:41:54;;;;;;;20.03;6.73;;;;;;;9.02;100.00;98793.78;1382862;89;21437;-79
2022/12/10 01:44:26;;;;;;;25.63;7.50;;;;;;;9.02;100.00;98790.64;1550949;89;21348;-78
2022/12/10 01:47:00;;;;;;;19.10;7.13;;;;;;;9.03;100.00;98796.27;1542853;89;21319;-82
2022/12/10 01:49:37;;;;;;;19.83;6.57;;;;;;;9.06;100.00;98794.25;1526956;89;22265;-82
2022/12/10 01:52:07;;;;;;;19.33;7.17;;;;;;;9.09;100.00;98792.56;1520276;89;22317;-82
2022/12/10 01:54:38;;;;;;;15.85;6.47;;;;;;;9.12;100.00;98789.56;1381454;89;21451;-83
2022/12/10 01:57:14;;;;;;;;;;;;;;;9.13;100.00;98786.77;1553270;89;22266;-79
2022/12/10 01:59:42;;;;;;;20.17;8.33;;;;;;;9.14;100.00;98785.76;1516761;89;20310;-79
2022/12/10 02:02:29;;;;;;;19.43;5.53;;;;;;;9.15;100.00;98791.85;1461133;89;21451;-79
2022/12/10 02:05:21;;;;;;;17.23;6.97;;;;;;;9.15;100.00;98802.41;1466190;89;21595;-77
2022/12/10 02:08:14;;;;;;;25.37;6.33;;;;;;;9.15;100.00;98803.25;1464165;89;22456;-78
2022/12/10 02:10:58;;;;;;;16.20;6.20;;;;;;;9.14;100.00;98812.66;1434340;89;22410;-78
2022/12/10 02:13:41;;;;;;;20.77;7.33;;;;;;;9.15;100.00;98814.28;1459362;89;22649;-79
2022/12/10 02:16:22;;;;;;;19.57;7.03;;;;;;;9.14;100.00;98808.70;1465931;89;21607;-77
2022/12/10 02:19:02;;;;;;;19.60;7.80;;;;;;;9.13;100.00;98814.98;1458123;89;21495;-79
2022/12/10 02:21:39;;;;;;;18.80;7.60;;;;;;;9.14;100.00;98813.98;1464476;89;21480;-79
2022/12/10 02:24:14;;;;;;;20.67;6.50;;;;;;;9.12;100.00;98808.05;1451603;89;22929;-80
2022/12/10 02:27:01;;;;;;;20.50;7.10;;;;;;;9.11;100.00;98811.19;1468838;89;22000;-79
2022/12/10 02:29:30;;;;;;;26.83;7.67;;;;;;;9.11;100.00;98809.05;1454038;89;21657;-81
2022/12/10 02:32:09;;;;;;;22.63;7.30;;;;;;;9.13;100.00;98801.79;1468363;89;21614;-78
2022/12/10 02:34:41;;;;;;;14.57;6.70;;;;;;;9.13;100.00;98809.70;1463392;89;22346;-81
2022/12/10 02:37:15;;;;;;;14.43;5.93;;;;;;;9.11;100.00;98804.59;1456306;89;22391;-80
2022/12/10 02:39:45;;;;;;;17.17;7.63;;;;;;;9.13;100.00;98807.06;1456067;89;21429;-81
2022/12/10 02:42:14;;;;;;;22.55;6.50;;;;;;;9.14;100.00;98812.16;1472874;89;22370;-80
2022/12/10 02:44:43;;;;;;;17.67;6.93;;;;;;;9.15;100.00;98812.97;1455841;89;21466;-82
2022/12/10 02:47:12;;;;;;;20.23;7.30;;;;;;;9.14;100.00;98815.30;1463716;89;21443;-81
2022/12/10 02:49:40;;;;;;;21.53;7.43;;;;;;;9.17;100.00;98817.58;1457280;89;21458;-80
2022/12/10 02:52:13;;;;;;;17.10;7.23;;;;;;;9.19;100.00;98813.77;1462676;89;21548;-82
2022/12/10 02:54:43;;;;;;;18.80;7.47;;;;;;;9.23;100.00;98815.55;1462166;89;22517;-78
2022/12/10 02:57:36;;;;;;;21.87;7.80;;;;;;;9.24;100.00;98822.48;1461021;89;22449;-82
2022/12/10 03:00:19;;;;;;;20.73;7.33;;;;;;;9.25;100.00;98818.83;1456987;89;21465;-83
2022/12/10 03:03:21;;;;;;;15.80;6.20;;;;;;;9.27;100.00;98828.72;1459281;89;21385;-80
2022/12/10 03:06:02;;;;;;;32.30;7.53;;;;;;;9.29;100.00;98820.10;1462744;89;21479;-79
2022/12/10 03:08:51;;;;;;;;;;;;;;;9.31;100.00;98826.55;1459749;89;22161;-80
2022/12/10 03:11:21;;;;;;;13.37;6.07;;;;;;;9.33;100.00;98814.80;1468630;89;20874;-79
2022/12/10 03:13:59;;;;;;;19.57;5.78;;;;;;;9.35;100.00;98818.09;1455416;89;21466;-80
2022/12/10 03:16:30;;;;;;;15.83;7.00;;;;;;;9.35;100.00;98828.66;1460460;89;21665;-80
2022/12/10 03:19:01;;;;;;;22.00;7.50;;;;;;;9.38;100.00;98829.62;1455275;89;22493;-79
2022/12/10 03:21:30;;;;;;;28.50;8.43;;;;;;;9.38;100.00;98826.13;1456207;89;21562;-78
2022/12/10 03:23:56;;;;;;;20.23;5.73;;;;;;;9.41;100.00;98822.66;1469169;89;21715;-79
2022/12/10 03:26:23;;;;;;;22.37;6.63;;;;;;;9.43;100.00;98824.59;1467135;89;21518;-78
2022/12/10 03:28:54;;;;;;;22.20;5.40;;;;;;;9.45;100.00;98817.33;1454401;89;21481;-78
2022/12/10 03:31:21;;;;;;;17.30;6.27;;;;;;;9.47;100.00;98806.59;1464354;89;21532;-79
2022/12/10 03:33:48;;;;;;;18.80;7.17;;;;;;;9.47;100.00;98810.05;1467295;89;21400;-79
2022/12/10 03:36:18;;;;;;;15.60;6.43;;;;;;;9.48;100.00;98802.44;1470945;89;21616;-78
2022/12/10 03:38:44;;;;;;;17.83;7.33;;;;;;;9.49;100.00;98810.70;1453946;89;22383;-79
2022/12/10 03:41:10;;;;;;;12.27;5.23;;;;;;;9.49;100.00;98810.70;1472245;89;21370;-79
2022/12/10 03:43:56;;;;;;;20.50;6.87;;;;;;;9.51;100.00;98810.51;1459424;89;22442;-79
2022/12/10 03:46:29;;;;;;;14.60;7.23;;;;;;;9.52;100.00;98808.17;1461575;89;21505;-79
2022/12/10 03:48:57;;;;;;;16.57;6.03;;;;;;;9.55;100.00;98817.09;1463660;89;21481;-79
2022/12/10 03:51:23;;;;;;;18.73;6.43;;;;;;;9.56;100.00;98809.98;1464513;89;21532;-79
2022/12/10 03:53:49;;;;;;;16.03;6.00;;;;;;;9.58;100.00;98809.27;1461005;89;21473;-79
2022/12/10 03:56:17;;;;;;;22.87;5.97;;;;;;;9.59;100.00;98817.54;1462848;89;21488;-79
2022/12/10 03:58:44;;;;;;;20.60;9.07;;;;;;;9.58;100.00;98817.20;1459908;89;21503;-79
2022/12/10 04:01:10;;;;;;;15.87;6.77;;;;;;;9.60;100.00;98816.02;1469521;89;21495;-78
2022/12/10 04:03:40;;;;;;;23.20;8.13;;;;;;;9.60;100.00;98825.27;1458114;89;21518;-78
2022/12/10 04:06:11;;;;;;;17.07;5.90;;;;;;;9.62;100.00;98825.10;1463406;89;21689;-79
2022/12/10 04:08:38;;;;;;;15.27;6.67;;;;;;;9.63;100.00;98826.73;1464789;89;21444;-79
2022/12/10 04:11:06;;;;;;;13.67;6.37;;;;;;;9.65;100.00;98821.59;1468381;89;22342;-79
2022/12/10 04:16:27;;;;;;;18.53;7.70;;;;;;;9.65;100.00;98826.06;1460305;89;22456;-78
2022/12/10 04:19:00;;;;;;;15.00;6.27;;;;;;;9.67;100.00;98829.34;1462648;89;22220;-79
2022/12/10 04:27:08;;;;;;;17.50;6.40;;;;;;;9.66;100.00;98830.33;1466350;89;21414;-80
2022/12/10 04:29:34;;;;;;;15.53;6.60;;;;;;;9.66;100.00;98823.73;1452945;89;22061;-79
2022/12/10 04:32:00;;;;;;;13.90;7.03;;;;;;;9.67;100.00;98835.95;1453418;89;22316;-80
2022/12/10 04:34:27;;;;;;;17.03;6.83;;;;;;;9.66;100.00;98825.05;1449838;89;21429;-80
2022/12/10 04:36:53;;;;;;;13.27;6.17;;;;;;;9.66;100.00;98823.22;1466959;89;22317;-80
2022/12/10 04:39:20;;;;;;;12.00;7.17;;;;;;;9.68;100.00;98826.51;1456276;89;21465;-81
2022/12/10 04:41:49;;;;;;;16.33;7.67;;;;;;;9.70;100.00;98828.48;1466523;89;21465;-80
2022/12/10 04:44:16;;;;;;;20.77;9.87;;;;;;;9.73;100.00;98833.91;1464191;89;21452;-81
2022/12/10 04:46:42;;;;;;;17.30;9.53;;;;;;;9.72;100.00;98836.21;1460073;89;22302;-79
2022/12/10 04:49:08;;;;;;;17.43;7.27;;;;;;;9.73;100.00;98831.27;1465778;89;21466;-79
2022/12/10 04:51:35;;;;;;;22.03;9.53;;;;;;;9.75;100.00;98830.56;1468235;89;21488;-80
2022/12/10 04:54:03;;;;;;;13.27;8.40;;;;;;;9.74;100.00;98834.22;1455677;89;21518;-80
2022/12/10 04:56:30;;;;;;;18.53;8.53;;;;;;;9.75;100.00;98838.99;1466602;89;21452;-77
2022/12/10 04:58:57;;;;;;;18.13;8.47;;;;;;;9.75;100.00;98839.80;1445398;89;21436;-79
2022/12/10 05:01:24;;;;;;;22.90;8.43;;;;;;;9.76;100.00;98834.05;1467509;89;21452;-80
2022/12/10 05:03:51;;;;;;;14.27;7.50;;;;;;;9.77;100.00;98841.78;1465101;89;21585;-80
2022/12/10 05:06:19;;;;;;;20.23;7.97;;;;;;;9.74;100.00;98844.78;1463524;89;22398;-81
2022/12/10 05:08:46;;;;;;;25.47;10.97;;;;;;;9.77;100.00;98841.78;1460838;89;21474;-79
2022/12/10 05:11:19;;;;;;;37.87;13.37;;;;;;;9.76;100.00;98843.30;1458557;89;21548;-80
2022/12/10 05:13:46;;;;;;;55.80;16.70;;;;;;;9.79;100.00;98837.14;1452560;89;21444;-80
2022/12/10 05:16:16;;;;;;;30.63;12.10;;;;;;;9.81;100.00;98844.88;1462085;89;22384;-80
2022/12/10 05:18:43;;;;;;;37.05;17.20;;;;;;;9.80;100.00;98846.70;1460989;89;21481;-80
2022/12/10 05:21:13;;;;;;;35.20;14.63;;;;;;;9.81;100.00;98844.88;1459771;89;21414;-79
2022/12/10 05:23:43;;;;;;;27.48;11.73;;;;;;;9.81;100.00;98840.43;1464288;89;21421;-78
2022/12/10 05:26:14;;;;;;;20.43;9.05;;;;;;;9.84;100.00;98833.94;1465218;89;21427;-79
2022/12/10 05:28:47;;;;;;;18.95;9.70;;;;;;;9.82;100.00;98831.49;1468898;89;21436;-80
2022/12/10 05:31:18;;;;;;;17.70;9.30;;;;;;;9.83;100.00;98830.48;1469977;89;21487;-79
2022/12/10 05:33:45;;;;;;;15.23;9.63;;;;;;;9.83;100.00;98827.84;1466897;89;21408;-79
2022/12/10 05:36:15;;;;;;;23.97;10.93;;;;;;;9.78;100.00;98825.42;1462135;89;22354;-79
2022/12/10 05:38:42;;;;;;;23.27;10.30;;;;;;;9.80;100.00;98824.23;1458087;89;21444;-79
2022/12/10 05:41:18;;;;;;;22.17;10.00;;;;;;;9.83;100.00;98834.95;1461388;89;21562;-82
2022/12/10 05:43:45;;;;;;;23.97;11.13;;;;;;;9.81;100.00;98839.11;1463602;89;21620;-80
2022/12/10 05:46:15;;;;;;;15.57;9.23;;;;;;;9.83;100.00;98841.55;1468251;89;22243;-83
2022/12/10 05:48:41;;;;;;;24.65;9.98;;;;;;;9.81;100.00;98839.11;1474644;89;21459;-81
2022/12/10 05:51:12;;;;;;;15.93;9.10;;;;;;;9.82;100.00;98843.38;1461351;89;22894;-81
2022/12/10 05:53:39;;;;;;;24.52;12.13;;;;;;;9.84;100.00;98840.55;1472357;89;21495;-81
2022/12/10 05:56:11;;;;;;;22.53;10.70;;;;;;;9.85;100.00;98843.02;1441968;89;21592;-81
2022/12/10 05:58:38;;;;;;;18.97;11.27;;;;;;;9.84;100.00;98842.70;1472379;89;21458;-81
2022/12/10 06:01:15;;;;;;;26.80;10.70;;;;;;;9.83;100.00;98839.73;1462308;89;21439;-81
2022/12/10 06:03:42;;;;;;;19.47;10.93;;;;;;;9.85;100.00;98846.98;1461995;89;21452;-82
2022/12/10 06:06:09;;;;;;;20.73;10.50;;;;;;;9.85;100.00;98847.48;1454486;89;21584;-82
2022/12/10 06:08:36;;;;;;;23.93;9.70;;;;;;;9.85;100.00;98855.41;1464716;89;21539;-82
2022/12/10 06:11:06;;;;;;;19.33;9.93;;;;;;;9.85;100.00;98854.91;1466318;89;21444;-79
2022/12/10 06:13:33;;;;;;;18.37;9.23;;;;;;;9.87;100.00;98860.84;1470610;89;21466;-81
2022/12/10 06:15:59;;;;;;;17.87;9.20;;;;;;;9.88;100.00;98856.38;1462878;89;22258;-82
2022/12/10 06:18:25;;;;;;;19.97;10.30;;;;;;;9.89;100.00;98858.81;1462916;89;21496;-78
2022/12/10 06:20:51;;;;;;;22.07;10.03;;;;;;;9.91;100.00;98861.30;1462502;89;21399;-78
2022/12/10 06:23:17;;;;;;;18.77;8.77;;;;;;;9.91;100.00;98863.94;1452843;89;21458;-78
2022/12/10 06:25:43;;;;;;;27.70;11.03;;;;;;;9.90;100.00;98872.87;1460642;89;22420;-80
2022/12/10 06:28:10;;;;;;;19.37;9.30;;;;;;;9.91;100.00;98871.86;1457995;89;21392;-80
2022/12/10 06:30:36;;;;;;;21.57;9.87;;;;;;;9.92;100.00;98880.91;1461627;89;22383;-80
2022/12/10 06:33:02;;;;;;;15.77;10.47;;;;;;;9.91;100.00;98875.32;1465113;89;21518;-80
2022/12/10 06:35:29;;;;;;;17.40;8.83;;;;;;;9.90;100.00;98883.45;1459846;89;21627;-79
2022/12/10 06:37:55;;;;;;;20.00;9.53;;;;;;;9.88;100.00;98884.94;1464895;89;21583;-79
2022/12/10 06:40:21;;;;;;;14.53;7.80;;;;;;;9.89;100.00;98889.20;1461022;89;21444;-80
2022/12/10 06:42:47;;;;;;;21.00;9.77;;;;;;;9.88;100.00;98886.25;1461801;89;21407;-79
2022/12/10 06:45:13;;;;;;;15.77;8.10;;;;;;;9.91;100.00;98893.00;1454024;89;21466;-79
2022/12/10 06:47:39;;;;;;;14.80;10.17;;;;;;;9.90;100.00;98886.91;1461039;89;22403;-80
2022/12/10 06:50:06;;;;;;;15.50;10.07;;;;;;;9.87;100.00;98885.95;1454901;89;21466;-79
2022/12/10 06:52:32;;;;;;;23.53;14.83;;;;;;;9.89;100.00;98897.64;1460215;89;21495;-80
2022/12/10 06:54:58;;;;;;;30.73;17.17;;;;;;;9.88;100.00;98907.39;1461512;89;22345;-79
2022/12/10 06:57:24;;;;;;;27.57;15.63;;;;;;;9.87;100.00;98911.05;1462442;89;21466;-79
2022/12/10 06:59:50;;;;;;;40.37;16.83;;;;;;;9.88;100.00;98908.72;1459569;89;21393;-78
2022/12/10 07:02:16;;;;;;;38.93;18.80;;;;;;;9.89;100.00;98914.31;1463450;89;21422;-78
2022/12/10 07:04:42;;;;;;;45.23;20.10;;;;;;;9.89;100.00;98911.67;1458341;89;21415;-77
2022/12/10 07:07:08;;;;;;;44.97;19.43;;;;;;;9.87;100.00;98907.59;1463593;89;21452;-78
2022/12/10 07:09:35;;;;;;;31.37;17.87;;;;;;;9.86;100.00;98913.86;1459930;89;21601;-78
2022/12/10 07:12:01;;;;;;;24.87;14.97;;;;;;;9.85;100.00;98910.91;1460313;89;22368;-77
2022/12/10 07:14:27;;;;;;;26.47;14.57;;;;;;;9.85;100.00;98919.65;1460450;89;21444;-76
2022/12/10 07:16:53;;;;;;;26.37;15.27;;;;;;;9.86;100.00;98922.59;1466837;89;21429;-76
2022/12/10 07:19:19;;;;;;;23.90;15.00;;;;;;;9.87;100.00;98921.62;1455679;89;21466;-77
2022/12/10 07:21:45;;;;;;;25.33;16.07;;;;;;;9.89;100.00;98920.10;1465378;89;22488;-77
2022/12/10 07:24:16;;;;;;;25.73;17.50;;;;;;;9.90;100.00;98918.61;1458796;89;21488;-78
2022/12/10 07:26:44;;;;;;;29.73;18.07;;;;;;;9.91;100.00;98921.56;1460416;89;21422;-77
2022/12/10 07:29:18;;;;;;;29.47;18.23;;;;;;;9.94;100.00;98924.36;1464723;89;22632;-77
2022/12/10 07:31:46;;;;;;;23.77;15.93;;;;;;;9.93;100.00;98923.54;1453460;89;21451;-75
2022/12/10 07:34:12;;;;;;;25.00;16.50;;;;;;;9.96;100.00;98922.87;1465922;89;21466;-75
2022/12/10 07:36:39;;;;;;;42.10;19.87;;;;;;;9.97;100.00;98925.82;1437878;90;21566;-75
2022/12/10 07:39:08;;;;;;;30.27;18.87;;;;;;;9.97;100.00;98928.47;1470160;88;21539;-77
2022/12/10 07:41:35;;;;;;;31.83;19.07;;;;;;;9.97;100.00;98921.86;1464313;89;21547;-78
2022/12/10 07:44:06;;;;;;;55.40;20.47;;;;;;;9.98;100.00;98923.48;1469805;89;21415;-78
2022/12/10 07:46:32;;;;;;;30.33;19.10;;;;;;;9.98;100.00;98924.81;1458177;89;21459;-76
2022/12/10 07:49:02;;;;;;;29.47;19.77;;;;;;;9.97;100.00;98928.47;1465213;89;21430;-79
2022/12/10 07:51:30;;;;;;;32.08;16.87;;;;;;;9.97;100.00;98931.11;1460309;89;21525;-79
2022/12/10 07:53:56;;;;;;;27.73;18.53;;;;;;;9.98;100.00;98947.27;1466808;89;21474;-79
2022/12/10 07:56:24;;;;;;;25.47;17.93;;;;;;;9.94;100.00;98943.67;1472457;89;21543;-79
2022/12/10 07:58:53;;;;;;;26.80;16.67;;;;;;;9.93;100.00;98942.04;1464670;89;21422;-79
2022/12/10 08:01:23;;;;;;;37.40;19.53;;;;;;;9.93;100.00;98947.83;1462342;89;21473;-79
2022/12/10 08:03:50;;;;;;;37.93;18.95;;;;;;;9.91;100.00;98949.31;1465607;89;21554;-79
2022/12/10 08:06:19;;;;;;;37.77;18.50;;;;;;;9.91;100.00;98951.96;1459228;89;21467;-78
2022/12/10 08:08:46;;;;;;;37.40;22.83;;;;;;;9.89;100.00;98952.62;1467788;89;21444;-79
2022/12/10 08:11:15;;;;;;;39.50;20.53;;;;;;;9.84;100.00;98951.05;1462562;89;21444;-77
2022/12/10 08:13:42;;;;;;;38.67;17.43;;;;;;;9.80;100.00;98955.03;1462860;89;21525;-77
2022/12/10 08:16:15;;;;;;;31.53;17.50;;;;;;;9.80;100.00;98960.81;1463026;89;21421;-78
2022/12/10 08:18:42;;;;;;;36.73;19.90;;;;;;;9.79;100.00;98957.36;1459050;89;21606;-76
2022/12/10 08:21:18;;;;;;;37.90;19.47;;;;;;;9.76;100.00;98956.40;1459555;89;21488;-76
2022/12/10 08:23:45;;;;;;;36.20;19.53;;;;;;;9.73;100.00;98955.94;1457939;89;21692;-78
2022/12/10 08:26:16;;;;;;;36.67;17.43;;;;;;;9.72;100.00;98963.02;1456281;89;21525;-79
2022/12/10 08:28:43;;;;;;;41.37;19.48;;;;;;;9.74;100.00;98959.71;1457483;89;21488;-76
2022/12/10 08:31:12;;;;;;;44.37;20.10;;;;;;;9.73;100.00;98966.00;1461069;89;21488;-78
2022/12/10 08:33:38;;;;;;;44.57;21.43;;;;;;;9.71;100.00;98969.31;1464986;89;21479;-76
2022/12/10 08:36:08;;;;;;;38.43;19.23;;;;;;;9.73;100.00;98972.61;1460393;89;21663;-75
2022/12/10 08:38:35;;;;;;;35.03;18.30;;;;;;;9.72;100.00;98972.27;1454275;89;22479;-76
2022/12/10 08:41:21;;;;;;;38.27;19.70;;;;;;;9.66;100.00;98971.16;1478494;89;21547;-76
2022/12/10 08:43:50;;;;;;;34.43;18.90;;;;;;;9.63;100.00;98978.62;1457815;89;21518;-76
2022/12/10 08:46:16;;;;;;;39.57;19.27;;;;;;;9.59;100.00;98983.94;1473693;89;22403;-76
2022/12/10 08:48:43;;;;;;;39.07;19.10;;;;;;;9.56;100.00;98985.62;1459283;89;21465;-76
2022/12/10 08:51:14;;;;;;;34.20;17.13;;;;;;;9.54;100.00;98984.45;1459138;89;21488;-76
2022/12/10 08:53:40;;;;;;;42.13;20.10;;;;;;;9.55;100.00;98985.27;1470658;89;21540;-76
2022/12/10 08:56:07;;;;;;;41.23;19.13;;;;;;;9.52;100.00;98979.02;1447329;90;21537;-82
2022/12/10 08:58:33;;;;;;;38.67;23.77;;;;;;;9.44;100.00;98979.42;1465941;88;21598;-78
2022/12/10 09:01:02;;;;;;;38.03;20.00;;;;;;;9.43;100.00;98977.76;1461602;89;21621;-77
2022/12/10 09:03:28;;;;;;;32.47;18.33;;;;;;;9.38;100.00;98969.56;1461055;89;21428;-78
2022/12/10 09:05:54;;;;;;;36.53;18.83;;;;;;;9.35;100.00;98967.28;1457998;89;21473;-78
2022/12/10 09:08:20;;;;;;;29.77;19.47;;;;;;;9.32;100.00;98967.62;1458069;89;21377;-77
2022/12/10 09:10:46;;;;;;;43.10;24.67;;;;;;;9.32;100.00;98959.70;1463074;89;21541;-78
2022/12/10 09:13:12;;;;;;;36.80;21.60;;;;;;;9.32;100.00;98962.34;1456635;89;22369;-78
2022/12/10 09:15:38;;;;;;;40.70;21.57;;;;;;;9.30;100.00;98965.66;1461929;89;21421;-78
2022/12/10 09:18:04;;;;;;;33.70;18.80;;;;;;;9.24;100.00;98960.57;1463503;89;21437;-76
2022/12/10 09:20:31;;;;;;;37.50;20.40;;;;;;;9.24;100.00;98961.08;1439863;89;21691;-78
2022/12/10 09:22:57;;;;;;;29.13;16.47;;;;;;;9.24;100.00;98965.03;1456235;89;22317;-76
2022/12/10 09:25:23;;;;;;;38.03;23.27;;;;;;;9.18;100.00;98964.42;1463560;89;21514;-75
2022/12/10 09:27:49;;;;;;;36.73;22.33;;;;;;;9.15;100.00;98968.70;1462654;89;21599;-76
2022/12/10 09:30:16;;;;;;;40.07;21.13;;;;;;;9.12;100.00;98969.05;1472661;89;22076;-78
2022/12/10 09:32:42;;;;;;;39.40;21.60;;;;;;;9.09;100.00;98972.03;1461617;89;21517;-76
2022/12/10 09:35:08;;;;;;;33.77;19.33;;;;;;;9.10;100.00;98971.06;1458968;89;22309;-75
2022/12/10 09:37:34;;;;;;;29.23;17.90;;;;;;;9.10;100.00;98964.45;1459798;89;21473;-76
2022/12/10 09:40:00;;;;;;;27.50;18.53;;;;;;;8.97;100.00;98960.55;1461615;89;22324;-75
2022/12/10 09:42:53;;;;;;;33.70;20.47;;;;;;;8.89;100.00;98955.34;1464825;89;21443;-74
2022/12/10 09:45:37;;;;;;;30.77;17.20;;;;;;;8.90;100.00;98960.92;1460733;89;21451;-75
2022/12/10 09:48:21;;;;;;;22.53;14.27;;;;;;;8.84;100.00;98956.34;1462774;89;21643;-75
2022/12/10 09:51:10;;;;;;;30.10;11.97;;;;;;;8.68;100.00;98957.22;1455994;89;22353;-75
2022/12/10 09:53:38;;;;;;;16.43;8.33;;;;;;;8.26;100.00;98954.88;1456891;89;21487;-75
2022/12/10 09:56:07;;;;;;;14.60;7.53;;;;;;;7.73;100.00;98957.56;1468629;89;21457;-74
2022/12/10 09:58:36;;;;;;;12.77;5.80;;;;;;;7.51;100.00;98958.56;1541829;89;21400;-74
2022/12/10 10:01:06;;;;;;;14.30;6.23;;;;;;;7.14;100.00;98966.41;1382555;89;21399;-75
2022/12/10 10:03:37;;;;;;;10.23;5.60;;;;;;;6.96;100.00;98969.16;1394024;89;22362;-74
2022/12/10 10:06:05;;;;;;;16.33;5.90;;;;;;;6.75;100.00;98977.45;1387437;90;21437;-75
2022/12/10 10:08:48;;;;;;;9.43;5.10;;;;;;;6.68;100.00;98975.62;1384046;89;21504;-80
2022/12/10 10:11:21;;;;;;;10.73;4.57;;;;;;;6.70;100.00;98975.81;1521580;89;21297;-82
2022/12/10 10:14:06;;;;;;;11.63;4.63;;;;;;;6.64;100.00;98974.28;1481905;89;21715;-81
2022/12/10 10:16:54;;;;;;;7.83;4.37;;;;;;;6.62;100.00;98978.40;1490747;89;21356;-82
2022/12/10 10:19:28;;;;;;;6.00;4.30;;;;;;;6.46;100.00;98972.56;1541317;89;21349;-80
2022/12/10 10:21:54;;;;;;;6.70;4.20;;;;;;;6.50;100.00;98974.38;1430829;89;21391;-81
2022/12/10 10:24:25;;;;;;;6.43;3.83;;;;;;;6.40;100.00;98968.42;1391765;89;21444;-82
2022/12/10 10:26:55;;;;;;;9.48;4.55;;;;;;;6.25;100.00;98970.31;1392376;89;21371;-81
2022/12/10 10:29:26;;;;;;;9.20;3.50;;;;;;;6.30;100.00;98973.31;1381944;90;21452;-82
2022/12/10 10:32:10;;;;;;;6.20;3.80;;;;;;;6.33;100.00;98968.23;1518263;89;21364;-81
2022/12/10 10:34:39;;;;;;;6.47;4.57;;;;;;;6.31;100.00;98973.63;1401706;89;21340;-82
2022/12/10 10:37:06;;;;;;;8.00;5.80;;;;;;;6.30;100.00;98966.73;1388707;89;21497;-82
2022/12/10 10:39:36;;;;;;;13.80;7.13;;;;;;;6.40;100.00;98967.11;1384393;89;21408;-80
2022/12/10 10:42:09;;;;;;;7.53;4.90;;;;;;;6.39;100.00;98967.61;1388253;89;21540;-79
2022/12/10 10:44:38;;;;;;;7.03;4.33;;;;;;;6.30;100.00;98969.37;1542849;89;22156;-81
2022/12/10 10:47:25;;;;;;;8.07;4.70;;;;;;;6.29;100.00;98962.94;1384227;89;21378;-81
2022/12/10 10:49:53;;;;;;;6.10;4.13;;;;;;;6.19;100.00;98956.49;1433340;90;21612;-82
2022/12/10 10:52:19;;;;;;;6.90;4.40;;;;;;;6.03;100.00;98952.45;1449294;89;21399;-81
2022/12/10 10:54:48;;;;;;;6.73;4.40;;;;;;;5.94;100.00;98947.63;1462180;89;22072;-80
2022/12/10 10:57:26;;;;;;;7.57;4.13;;;;;;;5.86;100.00;98940.97;1466801;89;21594;-80
2022/12/10 11:00:03;;;;;;;8.23;5.93;;;;;;;5.84;100.00;98939.83;1465452;89;21466;-81
2022/12/10 11:02:36;;;;;;;6.90;4.80;;;;;;;5.86;100.00;98935.23;1461499;89;21599;-80
2022/12/10 11:05:17;;;;;;;6.30;4.63;;;;;;;5.90;100.00;98934.45;1463053;89;21473;-82
2022/12/10 11:07:43;;;;;;;7.87;5.78;;;;;;;5.98;100.00;98932.38;1468520;88;21466;-82
2022/12/10 11:10:22;;;;;;;6.60;5.43;;;;;;;6.05;100.00;98932.92;1458825;89;21436;-80
2022/12/10 11:17:29;;;;;;;12.33;6.47;;;;;;;6.17;100.00;98937.42;1390525;92;21341;-84
2022/12/10 11:20:04;;;;;;;7.23;4.90;;;;;;;6.16;100.00;98948.92;1388343;92;22343;-83
2022/12/10 11:22:33;;;;;;;13.07;5.73;;;;;;;6.13;100.00;98947.08;1475517;92;21414;-82
2022/12/10 11:25:00;;;;;;;40.03;23.07;;;;;;;6.11;100.00;98939.37;1467566;92;21414;-81
2022/12/10 11:28:17;;;;;;;57.43;30.80;;;;;;;6.13;100.00;98940.51;1453960;92;21422;-84
2022/12/10 11:30:51;;;;;;;65.87;31.60;;;;;;;6.14;100.00;98941.68;1346573;92;21554;-81
2022/12/10 11:33:32;;;;;;;66.27;33.77;;;;;;;6.12;100.00;98934.93;1469558;94;21502;-81
2022/12/10 11:36:21;;;;;;;43.80;24.52;;;;;;;6.11;100.00;98932.80;1470523;92;22331;-82
2022/12/10 11:39:17;;;;;;;22.97;14.13;;;;;;;6.13;100.00;98930.85;1461927;92;21460;-82
2022/12/10 11:41:51;;;;;;;24.87;13.83;;;;;;;6.09;100.00;98932.94;1403742;92;22571;-82
2022/12/10 11:44:37;;;;;;;43.33;25.03;;;;;;;6.02;100.00;98925.86;1358683;92;21407;-82
2022/12/10 11:47:18;;;;;;;29.37;17.37;;;;;;;5.99;100.00;98924.86;1374135;92;22288;-80
2022/12/10 11:50:01;;;;;;;16.42;9.15;;;;;;;5.95;100.00;98928.25;1492448;92;22177;-81